Portada
METAR-TAF:

METAR-TAF

Aeroports :

Kasumigaura, Japó

latitud: 36-02N, longitud: 140-12E, altitud: 26 m

Observació

L'informe es va fer fa 19 hores i 35 minuts, a les 04:50 UTC
Vent 5 kt del Oest/Nord-Oest
Temperatura 18°C
Humitat 88%
Pressió 999 hPa
Visibilitat: 2500 m
Cel ennuvolat a una alçada de 300 ft
Cel cobert a una alçada de 1000 ft
xàfecs de pluja, boirina

METAR: RJAK 230450Z 30005KT 2500 -SHRA BR BKN003 OVC010 18/16 Q0999 RMK 5ST003 8ST010 A2952

Hora: 09:25 (00:25 UTC)


TAF: manca

Observacions i pronòstics meteorològics de més de 4000 aeroports (METAR i TAF).

Les estacions disponibles són els punts grocs i vermells al mapa.

Posi el ratolí al punt desitjat per veure el nom de l'estació.

Feu clic per veure les observacions i els pronòstics meteorològics.

Per canviar el mapa: feu clic els botons verds amb una creu de color negre per apropar; al botó verd amb un guió per allunyar la imatge; o en les fletxes verdes per a mapes adjacents.


METAR-TAF: